Time;durP1;ratioP1;P1;durP2;ratioP2;P2;SDS_P1;SDS_P2;PMS_P1;PMS_P2;Temp;Humidity;BMP_temperature;BMP_pressure;BME280_temperature;BME280_humidity;BME280_pressure;Samples;Min_cycle;Max_cycle;Signal;HPM_P1;HPM_P2
2023/04/20 00:00:29;;;;;;;2.83;1.40;;;;;;;9.50;43.70;100514.03;10182563;29;20100;-63
2023/04/20 00:05:31;;;;;;;5.68;2.25;;;;;;;9.49;43.78;100514.19;10182433;29;20074;-64
2023/04/20 00:10:33;;;;;;;3.10;1.98;;;;;;;9.44;44.36;100503.09;10191249;29;20048;-63
2023/04/20 00:15:34;;;;;;;5.10;1.77;;;;;;;9.38;44.28;100493.03;10190165;29;20113;-64
2023/04/20 00:20:36;;;;;;;4.25;2.00;;;;;;;9.30;44.33;100488.50;10182339;29;20088;-63
2023/04/20 00:25:37;;;;;;;10.05;2.85;;;;;;;9.24;44.50;100484.66;10186472;29;20040;-63
2023/04/20 00:30:39;;;;;;;4.53;2.00;;;;;;;9.11;45.48;100470.88;10168013;29;20106;-63
2023/04/20 00:35:40;;;;;;;4.32;1.88;;;;;;;8.98;45.79;100473.16;10184058;29;20048;-63
2023/04/20 00:40:43;;;;;;;3.25;1.90;;;;;;;8.87;45.98;100468.94;10177161;29;20056;-64
2023/04/20 00:45:47;;;;;;;5.57;2.58;;;;;;;8.81;46.39;100466.91;10186553;29;20059;-63
2023/04/20 00:50:49;;;;;;;4.78;2.33;;;;;;;8.70;46.31;100465.34;10168134;29;20047;-64
2023/04/20 00:55:51;;;;;;;7.03;2.45;;;;;;;8.54;46.88;100463.44;10189701;29;20035;-62
2023/04/20 01:00:53;;;;;;;6.53;2.15;;;;;;;8.50;46.27;100454.88;10183532;29;20059;-63
2023/04/20 01:05:54;;;;;;;6.63;2.42;;;;;;;8.45;47.04;100446.50;10185685;29;20049;-64
2023/04/20 01:10:56;;;;;;;5.55;2.00;;;;;;;8.38;47.20;100436.53;10186308;29;20048;-63
2023/04/20 01:15:59;;;;;;;5.20;3.47;;;;;;;8.28;47.42;100426.78;10197478;29;20088;-63
2023/04/20 01:21:00;;;;;;;6.00;2.80;;;;;;;8.23;48.47;100423.72;10196707;29;20103;-63
2023/04/20 01:26:07;;;;;;;6.38;2.63;;;;;;;8.16;48.36;100413.84;10192938;29;20282;-62
2023/04/20 01:31:10;;;;;;;4.05;2.50;;;;;;;8.06;48.70;100416.63;10193585;29;20033;-63
2023/04/20 01:36:11;;;;;;;8.02;2.30;;;;;;;8.11;48.86;100407.09;10194724;29;20036;-63
2023/04/20 01:41:13;;;;;;;7.38;2.45;;;;;;;8.19;48.31;100410.81;10185841;29;20059;-64
2023/04/20 01:46:14;;;;;;;4.00;2.20;;;;;;;8.27;48.41;100408.19;10191211;29;20052;-62
2023/04/20 01:51:16;;;;;;;5.70;2.88;;;;;;;8.21;48.58;100403.47;10194693;29;20143;-63
2023/04/20 01:56:17;;;;;;;3.22;1.85;;;;;;;8.19;48.72;100397.44;10193065;29;20055;-63
2023/04/20 02:01:18;;;;;;;12.18;3.38;;;;;;;8.23;48.84;100396.94;10196422;29;20056;-64
2023/04/20 02:06:20;;;;;;;5.65;2.40;;;;;;;8.31;49.25;100396.16;10178343;29;20044;-63
2023/04/20 02:11:22;;;;;;;9.73;2.45;;;;;;;8.33;49.88;100392.34;10190973;29;20048;-64
2023/04/20 02:16:23;;;;;;;5.22;2.53;;;;;;;8.45;49.56;100384.03;10189785;29;20069;-63
2023/04/20 02:21:25;;;;;;;4.97;2.13;;;;;;;8.49;50.20;100391.59;10191595;29;20051;-62
2023/04/20 02:26:26;;;;;;;7.50;2.80;;;;;;;8.51;51.05;100386.91;10191014;29;20056;-63
2023/04/20 02:31:27;;;;;;;3.63;2.15;;;;;;;8.51;50.92;100375.34;10192440;29;20052;-62
2023/04/20 02:36:29;;;;;;;3.83;2.00;;;;;;;8.52;52.10;100372.50;10189929;29;20080;-62
2023/04/20 02:41:31;;;;;;;3.50;2.25;;;;;;;8.54;52.34;100373.19;10195016;29;20091;-63
2023/04/20 02:46:32;;;;;;;3.47;2.13;;;;;;;8.59;52.31;100370.03;10192775;29;20040;-64
2023/04/20 02:51:34;;;;;;;3.13;2.10;;;;;;;8.58;52.75;100360.31;10193035;29;20047;-64
2023/04/20 02:56:35;;;;;;;2.83;2.30;;;;;;;8.61;52.88;100362.66;10181746;29;20076;-64
2023/04/20 03:01:37;;;;;;;3.40;2.30;;;;;;;8.62;53.31;100355.47;10189116;29;20049;-64
2023/04/20 03:06:39;;;;;;;3.13;1.90;;;;;;;8.65;53.48;100357.78;10187844;29;20052;-64
2023/04/20 03:11:40;;;;;;;3.90;2.50;;;;;;;8.69;53.99;100357.31;10186057;29;20059;-65
2023/04/20 03:16:42;;;;;;;5.38;2.83;;;;;;;8.79;54.04;100357.19;10189164;29;20070;-65
2023/04/20 03:21:44;;;;;;;4.50;2.42;;;;;;;8.69;54.45;100357.31;10185031;29;21044;-65
2023/04/20 03:26:45;;;;;;;4.78;2.88;;;;;;;8.60;54.55;100360.16;10183014;29;20047;-65
2023/04/20 03:31:47;;;;;;;5.68;3.17;;;;;;;8.49;55.83;100359.44;10189839;29;20048;-63
2023/04/20 03:36:49;;;;;;;3.30;2.75;;;;;;;8.43;56.04;100360.09;10183910;29;20557;-63
2023/04/20 03:41:50;;;;;;;4.57;2.75;;;;;;;8.32;56.80;100355.81;10189548;29;20413;-64
2023/04/20 03:46:51;;;;;;;3.88;3.17;;;;;;;8.25;56.94;100352.09;10180918;29;20044;-63
2023/04/20 03:51:53;;;;;;;3.78;3.30;;;;;;;8.11;57.59;100356.22;10180029;29;20044;-63
2023/04/20 03:56:54;;;;;;;6.47;3.80;;;;;;;7.99;57.52;100349.47;10182493;29;20111;-62
2023/04/20 04:01:55;;;;;;;5.53;3.80;;;;;;;7.93;58.66;100355.47;10189974;29;20056;-62
2023/04/20 04:06:57;;;;;;;4.90;3.63;;;;;;;7.82;59.20;100353.91;10187675;29;20087;-63
2023/04/20 04:11:58;;;;;;;4.25;3.72;;;;;;;7.82;58.87;100345.03;10189835;29;20052;-62
2023/04/20 04:17:00;;;;;;;6.20;4.18;;;;;;;7.72;60.17;100347.81;10180049;29;20060;-62
2023/04/20 04:22:01;;;;;;;5.03;3.85;;;;;;;7.68;59.61;100344.63;10168796;29;20449;-61
2023/04/20 04:27:04;;;;;;;4.85;3.67;;;;;;;7.66;60.12;100348.44;10142577;29;20052;-61
2023/04/20 04:32:06;;;;;;;5.95;4.00;;;;;;;7.57;61.22;100336.03;10137984;29;20064;-61
2023/04/20 04:37:08;;;;;;;7.07;4.65;;;;;;;7.67;60.50;100342.09;10143885;29;20076;-61
2023/04/20 04:42:09;;;;;;;7.95;3.90;;;;;;;7.70;60.25;100339.09;10141781;29;21201;-61
2023/04/20 04:47:11;;;;;;;5.13;3.88;;;;;;;7.63;60.89;100335.38;10151059;29;20139;-62
2023/04/20 04:52:12;;;;;;;7.75;3.83;;;;;;;7.65;61.86;100338.75;10153349;29;20044;-62
2023/04/20 04:57:13;;;;;;;9.60;5.13;;;;;;;7.73;60.72;100336.13;10144092;29;20151;-62
2023/04/20 05:02:15;;;;;;;6.65;4.25;;;;;;;7.74;61.85;100325.25;10146877;29;20103;-59
2023/04/20 05:07:17;;;;;;;9.25;4.30;;;;;;;7.75;61.68;100329.59;10157381;29;20075;-58
2023/04/20 05:12:18;;;;;;;6.65;4.53;;;;;;;7.78;61.54;100333.81;10142124;29;20085;-58
2023/04/20 05:17:20;;;;;;;5.93;4.78;;;;;;;7.68;61.96;100331.25;10147972;29;20048;-59
2023/04/20 05:22:21;;;;;;;7.45;4.80;;;;;;;7.77;61.97;100339.31;10146452;29;20045;-58
2023/04/20 05:27:23;;;;;;;5.90;4.07;;;;;;;7.81;62.04;100338.84;10137685;29;20195;-58
2023/04/20 05:32:24;;;;;;;7.10;4.95;;;;;;;7.93;62.29;100329.53;10146241;29;20048;-58
2023/04/20 05:37:26;;;;;;;8.65;4.75;;;;;;;7.90;62.20;100331.72;10140059;29;20052;-59
2023/04/20 05:42:27;;;;;;;6.40;3.90;;;;;;;7.92;62.23;100332.41;10140344;29;20067;-60
2023/04/20 05:47:29;;;;;;;5.85;3.65;;;;;;;7.98;62.30;100329.06;10148134;29;20080;-60
2023/04/20 05:52:30;;;;;;;5.40;4.18;;;;;;;7.99;62.38;100333.41;10150878;29;20123;-62
2023/04/20 05:57:32;;;;;;;5.60;4.25;;;;;;;8.11;62.87;100334.81;10152944;29;20048;-60
2023/04/20 06:02:33;;;;;;;8.98;5.05;;;;;;;8.17;62.42;100336.00;10145028;29;20048;-62
2023/04/20 06:07:35;;;;;;;5.88;3.97;;;;;;;8.21;62.83;100333.84;10163903;29;20060;-59
2023/04/20 06:12:37;;;;;;;5.80;4.05;;;;;;;8.29;62.92;100340.09;10171829;29;20059;-61
2023/04/20 06:17:39;;;;;;;8.10;5.47;;;;;;;8.42;62.28;100334.31;10167353;29;20052;-62
2023/04/20 06:22:43;;;;;;;8.15;4.80;;;;;;;8.38;62.98;100337.44;10149969;29;20067;-60
2023/04/20 06:27:45;;;;;;;5.55;4.55;;;;;;;8.53;62.75;100331.34;10155249;29;20192;-59
2023/04/20 06:32:46;;;;;;;6.07;4.18;;;;;;;8.57;63.57;100337.22;10152909;29;20045;-60
2023/04/20 06:37:48;;;;;;;6.68;3.85;;;;;;;8.82;62.55;100339.94;10148425;29;20067;-57
2023/04/20 06:42:49;;;;;;;7.93;3.70;;;;;;;8.89;62.68;100339.09;10152103;29;20044;-58
2023/04/20 06:47:51;;;;;;;5.20;3.95;;;;;;;8.99;62.88;100335.44;10146813;29;20048;-58
2023/04/20 06:52:52;;;;;;;4.88;3.60;;;;;;;9.00;62.84;100337.09;10150932;29;20050;-59
2023/04/20 06:57:54;;;;;;;3.50;3.03;;;;;;;8.89;63.11;100336.44;10150011;29;20061;-58
2023/04/20 07:02:55;;;;;;;3.45;3.13;;;;;;;8.83;62.99;100323.69;10150456;29;20107;-61
2023/04/20 07:07:57;;;;;;;4.93;3.40;;;;;;;8.84;63.05;100319.16;10146306;29;20397;-59
2023/04/20 07:12:58;;;;;;;4.80;3.90;;;;;;;8.89;62.80;100317.66;10146650;29;20116;-59
2023/04/20 07:18:00;;;;;;;4.70;2.80;;;;;;;8.80;62.73;100307.09;10144128;29;20048;-61
2023/04/20 07:23:01;;;;;;;3.40;2.88;;;;;;;8.70;63.01;100317.97;10146793;29;20131;-60
2023/04/20 07:28:02;;;;;;;4.30;3.22;;;;;;;8.81;62.74;100322.19;10143644;29;20080;-59
2023/04/20 07:33:04;;;;;;;4.40;3.15;;;;;;;8.94;62.44;100319.84;10138381;29;20075;-59
2023/04/20 07:38:06;;;;;;;3.90;2.90;;;;;;;9.02;62.45;100325.19;10148277;29;20183;-59
2023/04/20 07:43:07;;;;;;;4.93;3.10;;;;;;;9.10;62.26;100332.41;10147706;29;20044;-58
2023/04/20 07:48:08;;;;;;;4.75;3.30;;;;;;;9.33;62.50;100327.22;10142702;29;20076;-62
2023/04/20 07:53:10;;;;;;;6.32;2.63;;;;;;;9.33;62.30;100333.41;10145487;29;20084;-60
2023/04/20 07:58:13;;;;;;;2.95;2.35;;;;;;;9.59;61.95;100334.25;10144229;29;20131;-59
2023/04/20 08:03:14;;;;;;;3.92;2.70;;;;;;;9.84;61.79;100332.34;10143355;29;20112;-59
2023/04/20 08:08:16;;;;;;;3.85;2.42;;;;;;;9.98;62.15;100334.31;10142850;29;20052;-60
2023/04/20 08:13:18;;;;;;;3.22;2.55;;;;;;;10.18;61.34;100334.75;10144017;29;20056;-59
2023/04/20 08:18:20;;;;;;;4.47;2.60;;;;;;;10.47;60.97;100326.09;10143576;29;20075;-59
2023/04/20 08:23:26;;;;;;;4.43;3.28;;;;;;;10.84;60.59;100308.41;10146701;29;20052;-60
2023/04/20 08:28:27;;;;;;;3.35;2.10;;;;;;;11.03;60.28;100303.56;10154318;29;20080;-58
2023/04/20 08:33:34;;;;;;;3.08;2.78;;;;;;;11.24;59.77;100305.59;10146002;29;20053;-59
2023/04/20 08:38:36;;;;;;;4.40;2.83;;;;;;;11.61;59.05;100295.78;10145645;29;20048;-61
2023/04/20 08:43:38;;;;;;;4.03;2.58;;;;;;;11.76;58.55;100287.75;10152055;29;20081;-59
2023/04/20 08:48:40;;;;;;;5.40;2.72;;;;;;;11.76;58.57;100293.13;10147696;29;20449;-64
2023/04/20 08:53:42;;;;;;;3.15;2.20;;;;;;;11.89;58.05;100294.19;10148219;29;20504;-59
2023/04/20 08:58:43;;;;;;;3.75;2.45;;;;;;;12.33;56.82;100281.69;10148932;29;20041;-61
2023/04/20 09:03:44;;;;;;;3.67;2.50;;;;;;;12.48;56.58;100287.06;10152092;29;20139;-59
2023/04/20 09:08:46;;;;;;;3.33;2.70;;;;;;;12.71;55.89;100284.16;10150438;29;20100;-62
2023/04/20 09:14:05;;;;;;;4.78;2.83;;;;;;;12.92;55.47;100279.81;10140304;29;20482;-62
2023/04/20 09:19:07;;;;;;;5.38;2.70;;;;;;;12.99;55.25;100275.31;10144340;29;20068;-61
2023/04/20 09:24:10;;;;;;;5.47;2.97;;;;;;;13.03;54.57;100271.19;10143681;29;20047;-61
2023/04/20 09:29:20;;;;;;;3.92;3.13;;;;;;;12.90;54.06;100261.13;10142950;29;20112;-63
2023/04/20 09:34:22;;;;;;;5.60;3.55;;;;;;;12.98;53.73;100255.59;10145337;29;20699;-63
2023/04/20 09:39:25;;;;;;;3.85;2.90;;;;;;;13.15;53.16;100255.31;10148389;29;20044;-62
2023/04/20 09:44:27;;;;;;;5.78;2.90;;;;;;;13.32;52.49;100243.22;10143680;29;20539;-62
2023/04/20 09:49:29;;;;;;;4.18;3.20;;;;;;;13.55;52.09;100236.75;10144705;29;20532;-62
2023/04/20 09:54:30;;;;;;;5.20;3.40;;;;;;;13.64;51.75;100228.25;10144096;29;20048;-62
2023/04/20 09:59:32;;;;;;;9.43;3.72;;;;;;;13.62;51.59;100229.50;10146223;29;20056;-62
2023/04/20 10:04:33;;;;;;;4.53;3.13;;;;;;;13.67;51.52;100211.66;10147164;29;20501;-62
2023/04/20 10:09:36;;;;;;;5.45;3.08;;;;;;;13.81;51.12;100217.97;10127484;29;20404;-62
2023/04/20 10:14:38;;;;;;;5.18;3.20;;;;;;;13.88;50.25;100196.38;10140234;29;20136;-63
2023/04/20 10:19:41;;;;;;;5.18;4.07;;;;;;;13.97;50.00;100186.25;10147366;29;20088;-62
2023/04/20 10:24:42;;;;;;;3.83;3.15;;;;;;;14.10;49.75;100186.28;10142599;29;20461;-63
2023/04/20 10:29:44;;;;;;;3.55;3.20;;;;;;;14.01;49.30;100180.22;10144989;29;20132;-62
2023/04/20 10:34:46;;;;;;;6.75;3.67;;;;;;;13.93;49.32;100183.09;10141002;29;20505;-63
2023/04/20 10:39:47;;;;;;;6.22;3.53;;;;;;;13.93;49.02;100188.50;10147939;29;20405;-62
2023/04/20 10:44:50;;;;;;;7.38;4.10;;;;;;;13.81;49.45;100171.22;10139694;29;20048;-62
2023/04/20 10:49:51;;;;;;;7.40;3.47;;;;;;;13.74;49.19;100173.88;10145562;29;20052;-62
2023/04/20 10:54:53;;;;;;;4.82;3.60;;;;;;;13.86;49.08;100168.72;10144752;29;20056;-63
2023/04/20 10:59:54;;;;;;;4.45;3.35;;;;;;;14.14;48.00;100154.25;10140825;29;20067;-62
2023/04/20 11:04:59;;;;;;;6.53;3.40;;;;;;;14.26;47.85;100152.63;10139046;29;20076;-64
2023/04/20 11:10:01;;;;;;;7.15;4.25;;;;;;;14.13;47.61;100139.91;10142067;29;20058;-64
2023/04/20 11:15:05;;;;;;;5.13;3.88;;;;;;;13.67;48.02;100146.00;10140743;29;20076;-64
2023/04/20 11:20:12;;;;;;;4.78;3.55;;;;;;;13.61;47.64;100136.00;10150092;29;20480;-62
2023/04/20 11:25:13;;;;;;;6.80;4.00;;;;;;;13.77;47.91;100121.31;10170235;29;20099;-62
2023/04/20 11:30:14;;;;;;;5.82;3.50;;;;;;;13.78;48.17;100125.69;10167213;29;20053;-63
2023/04/20 11:35:16;;;;;;;6.53;3.90;;;;;;;14.11;47.41;100123.06;10174721;29;20407;-62
2023/04/20 11:40:17;;;;;;;5.18;4.22;;;;;;;14.27;47.64;100119.13;10168036;29;20049;-63
2023/04/20 11:45:19;;;;;;;3.40;3.00;;;;;;;14.56;48.42;100117.09;10177230;29;20056;-63
2023/04/20 11:50:21;;;;;;;5.80;2.95;;;;;;;14.81;48.08;100106.47;10167634;29;20048;-63
2023/04/20 11:55:22;;;;;;;3.88;2.88;;;;;;;15.21;47.18;100106.44;10161334;29;20048;-63
2023/04/20 12:00:24;;;;;;;3.92;2.65;;;;;;;15.69;46.44;100105.22;10162216;29;20057;-64
2023/04/20 12:05:27;;;;;;;4.18;2.97;;;;;;;16.01;46.49;100106.09;10155647;29;20068;-64
2023/04/20 12:10:28;;;;;;;3.50;2.75;;;;;;;16.03;45.93;100099.44;10158644;29;20124;-64
2023/04/20 12:15:29;;;;;;;3.85;3.13;;;;;;;15.80;46.02;100094.56;10161625;29;20056;-64
2023/04/20 12:20:31;;;;;;;4.43;2.97;;;;;;;15.97;45.36;100088.63;10153099;29;20067;-64
2023/04/20 12:25:33;;;;;;;2.78;2.33;;;;;;;16.38;43.91;100084.59;10160171;29;20540;-64
2023/04/20 12:30:34;;;;;;;2.92;2.63;;;;;;;16.74;43.00;100072.16;10176828;29;20052;-64
2023/04/20 12:35:36;;;;;;;4.18;1.90;;;;;;;17.21;41.79;100072.53;10171818;29;20052;-64
2023/04/20 12:40:37;;;;;;;2.45;1.70;;;;;;;17.76;40.48;100066.22;10159081;29;20045;-65
2023/04/20 12:45:39;;;;;;;4.13;1.75;;;;;;;18.11;38.87;100054.63;10162410;29;20049;-65
2023/04/20 12:50:41;;;;;;;2.10;1.40;;;;;;;18.80;37.45;100055.81;10179604;29;20052;-64
2023/04/20 12:55:42;;;;;;;2.95;1.80;;;;;;;18.69;36.98;100056.59;10166555;29;20064;-65
2023/04/20 13:00:44;;;;;;;3.38;2.05;;;;;;;18.56;37.02;100056.81;10175135;29;20096;-65
2023/04/20 13:05:45;;;;;;;4.72;2.63;;;;;;;18.09;37.51;100054.88;10157764;29;20060;-64
2023/04/20 13:10:47;;;;;;;2.90;2.35;;;;;;;17.68;37.91;100056.47;10186127;29;20077;-63
2023/04/20 13:15:48;;;;;;;2.30;1.83;;;;;;;17.27;38.19;100074.34;10190857;29;20052;-64
2023/04/20 13:20:50;;;;;;;3.03;1.80;;;;;;;16.79;39.02;100075.03;10192987;29;20095;-64
2023/04/20 13:25:51;;;;;;;2.97;2.22;;;;;;;16.56;39.36;100073.78;10186339;29;20052;-63
2023/04/20 13:30:54;;;;;;;2.22;1.58;;;;;;;16.15;39.43;100093.28;10197843;28;20081;-63
2023/04/20 13:35:55;;;;;;;4.28;2.60;;;;;;;15.77;40.52;100099.56;10191798;29;20060;-63
2023/04/20 13:40:57;;;;;;;2.72;2.03;;;;;;;15.66;40.90;100087.50;10196051;29;20056;-63
2023/04/20 13:45:58;;;;;;;3.30;1.55;;;;;;;15.66;41.02;100085.63;10186934;29;20052;-63
2023/04/20 13:50:59;;;;;;;3.40;1.95;;;;;;;15.58;40.83;100082.31;10154638;29;20076;-63
2023/04/20 13:56:01;;;;;;;2.40;1.40;;;;;;;15.44;40.79;100084.25;10150704;29;20085;-63
2023/04/20 14:01:07;;;;;;;3.10;2.30;;;;;;;15.39;41.11;100103.88;10154979;29;20064;-63
2023/04/20 14:06:09;;;;;;;2.38;2.17;;;;;;;14.75;43.51;100119.00;10154991;29;20053;-62
2023/04/20 14:11:10;;;;;;;4.72;2.67;;;;;;;14.37;45.65;100108.75;10147716;29;20108;-62
2023/04/20 14:16:15;;;;;;;5.70;2.90;;;;;;;14.40;45.90;100092.13;10150800;29;20064;-62
2023/04/20 14:21:17;;;;;;;2.72;2.25;;;;;;;14.52;45.67;100086.91;10147957;29;20048;-63
2023/04/20 14:26:19;;;;;;;2.53;1.80;;;;;;;14.62;45.57;100065.72;10154271;29;20100;-63
2023/04/20 14:31:21;;;;;;;3.63;1.95;;;;;;;14.86;44.82;100071.50;10150722;29;20056;-62
2023/04/20 14:36:23;;;;;;;3.63;2.13;;;;;;;15.02;44.31;100070.22;10154185;29;20058;-62
2023/04/20 14:41:24;;;;;;;11.50;6.07;;;;;;;15.07;44.03;100070.44;10158180;29;20076;-60
2023/04/20 14:46:26;;;;;;;3.53;2.25;;;;;;;14.95;43.91;100072.09;10154276;29;20884;-63
2023/04/20 14:51:27;;;;;;;4.35;2.28;;;;;;;14.81;44.49;100074.00;10159275;29;20124;-62
2023/04/20 14:56:28;;;;;;;3.50;3.08;;;;;;;14.57;45.18;100078.19;10165934;29;20080;-63
2023/04/20 15:01:30;;;;;;;4.50;2.97;;;;;;;14.40;45.49;100078.59;10163427;29;20052;-62
2023/04/20 15:06:33;;;;;;;2.97;2.63;;;;;;;14.27;46.45;100084.00;10174590;29;20104;-62
2023/04/20 15:11:34;;;;;;;6.82;2.97;;;;;;;14.21;46.82;100084.81;10172142;29;20091;-62
2023/04/20 15:16:36;;;;;;;7.78;3.45;;;;;;;13.99;47.09;100093.09;10173523;29;20067;-62
2023/04/20 15:21:37;;;;;;;5.20;3.35;;;;;;;13.83;47.77;100080.81;10161877;29;20051;-63
2023/04/20 15:26:39;;;;;;;6.72;3.88;;;;;;;13.79;48.09;100087.66;10172943;29;20080;-62
2023/04/20 15:31:42;;;;;;;9.05;3.83;;;;;;;13.75;48.18;100077.47;10158992;29;20572;-62
2023/04/20 15:36:43;;;;;;;3.97;3.30;;;;;;;13.64;48.52;100082.41;10157750;29;20076;-59
2023/04/20 15:41:45;;;;;;;3.75;2.80;;;;;;;13.45;48.67;100077.78;10165506;29;20520;-63
2023/04/20 15:46:46;;;;;;;5.13;3.42;;;;;;;13.38;48.83;100082.31;10169453;29;20053;-63
2023/04/20 15:51:48;;;;;;;3.80;3.28;;;;;;;13.34;48.55;100081.06;10169720;29;20111;-65
2023/04/20 15:56:49;;;;;;;3.25;2.17;;;;;;;13.32;49.12;100086.63;10135286;29;20056;-59
2023/04/20 16:01:52;;;;;;;6.10;3.05;;;;;;;13.24;49.05;100081.38;10145554;29;20571;-60
2023/04/20 16:06:53;;;;;;;4.00;2.42;;;;;;;13.12;49.04;100100.00;10144965;29;20055;-59
2023/04/20 16:11:55;;;;;;;4.97;3.00;;;;;;;13.01;49.59;100105.94;10145252;29;20075;-58
2023/04/20 16:17:01;;;;;;;4.20;3.30;;;;;;;12.94;49.86;100111.31;10142796;29;20056;-60
2023/04/20 16:22:02;;;;;;;5.72;3.58;;;;;;;12.84;50.03;100117.06;10153312;29;20115;-62
2023/04/20 16:27:04;;;;;;;5.43;3.85;;;;;;;12.76;50.41;100117.22;10165160;29;20059;-63
2023/04/20 16:32:05;;;;;;;6.68;4.82;;;;;;;12.47;51.29;100120.91;10162824;29;20056;-64
2023/04/20 16:37:07;;;;;;;6.18;5.00;;;;;;;12.38;52.21;100128.31;10162673;29;20605;-64
2023/04/20 16:42:08;;;;;;;7.70;5.50;;;;;;;12.38;51.84;100122.06;10179889;29;20052;-61
2023/04/20 16:47:10;;;;;;;8.90;5.05;;;;;;;12.35;52.50;100114.38;10184472;29;20064;-64
2023/04/20 16:52:12;;;;;;;7.15;5.28;;;;;;;12.14;53.06;100115.19;10176484;29;20056;-61
2023/04/20 16:57:13;;;;;;;7.40;5.47;;;;;;;12.07;53.64;100105.19;10164705;29;20108;-63
2023/04/20 17:02:15;;;;;;;8.40;5.63;;;;;;;12.00;53.74;100106.97;10171174;29;20060;-59
2023/04/20 17:07:16;;;;;;;7.90;5.88;;;;;;;11.91;54.33;100100.06;10168030;29;20124;-60
2023/04/20 17:12:18;;;;;;;8.23;5.72;;;;;;;11.87;54.51;100096.06;10148311;29;20049;-64
2023/04/20 17:17:19;;;;;;;12.40;7.25;;;;;;;11.73;55.37;100102.28;10161967;29;20135;-62
2023/04/20 17:22:21;;;;;;;9.20;6.93;;;;;;;11.66;55.74;100102.22;10174237;29;20049;-59
2023/04/20 17:27:22;;;;;;;12.00;8.02;;;;;;;11.48;56.25;100092.69;10159009;29;20052;-62
2023/04/20 17:32:24;;;;;;;10.50;8.27;;;;;;;11.35;57.09;100102.47;10156261;29;20049;-57
2023/04/20 17:37:25;;;;;;;11.75;8.63;;;;;;;11.33;57.16;100105.34;10150989;29;20044;-60
2023/04/20 17:42:27;;;;;;;12.50;8.98;;;;;;;11.34;57.32;100104.31;10158684;29;20095;-60
2023/04/20 17:47:31;;;;;;;13.93;9.95;;;;;;;11.24;58.01;100110.00;10147775;29;20483;-57
2023/04/20 17:52:32;;;;;;;12.77;9.63;;;;;;;11.19;58.28;100098.13;10149764;29;20354;-60
2023/04/20 17:57:34;;;;;;;14.68;10.50;;;;;;;11.19;58.63;100107.00;10147395;29;20051;-60
2023/04/20 18:02:36;;;;;;;15.48;11.32;;;;;;;11.11;59.29;100113.31;10132826;29;20108;-58
2023/04/20 18:07:38;;;;;;;16.20;10.85;;;;;;;11.11;59.24;100117.88;10148386;29;20048;-58
2023/04/20 18:12:39;;;;;;;15.15;11.43;;;;;;;10.99;60.21;100127.44;10128392;29;20735;-57
2023/04/20 18:17:41;;;;;;;18.80;12.15;;;;;;;10.90;60.46;100130.19;10143635;29;20057;-60
2023/04/20 18:22:42;;;;;;;21.17;12.48;;;;;;;10.92;60.66;100138.09;10172066;29;20040;-60
2023/04/20 18:27:44;;;;;;;17.55;13.15;;;;;;;10.85;60.74;100129.91;10167816;29;20044;-59
2023/04/20 18:32:46;;;;;;;16.13;11.85;;;;;;;10.83;61.28;100117.66;10167948;29;20064;-61
2023/04/20 18:37:47;;;;;;;17.27;13.15;;;;;;;10.70;61.66;100129.03;10158355;29;20060;-59
2023/04/20 18:42:48;;;;;;;22.10;13.57;;;;;;;10.62;62.15;100142.56;10177202;29;20048;-59
2023/04/20 18:47:50;;;;;;;23.48;15.43;;;;;;;10.57;62.80;100155.72;10168943;29;20052;-62
2023/04/20 18:52:51;;;;;;;22.20;14.73;;;;;;;10.47;63.19;100158.66;10168637;29;20084;-60
2023/04/20 18:57:52;;;;;;;24.88;16.40;;;;;;;10.37;63.95;100156.22;10159453;29;20095;-58
2023/04/20 19:02:54;;;;;;;24.48;16.80;;;;;;;10.16;64.99;100169.41;10155163;29;20143;-59
2023/04/20 19:07:56;;;;;;;24.25;16.85;;;;;;;10.03;65.53;100178.91;10143870;29;20056;-58
2023/04/20 19:12:57;;;;;;;22.55;15.07;;;;;;;9.82;66.28;100176.81;10140065;29;20219;-58
2023/04/20 19:17:58;;;;;;;22.95;15.55;;;;;;;9.72;66.48;100166.28;10141293;29;20056;-58
2023/04/20 19:23:00;;;;;;;24.33;15.82;;;;;;;9.60;67.49;100164.19;10144549;29;20492;-57
2023/04/20 19:28:01;;;;;;;23.40;16.67;;;;;;;9.50;67.74;100153.66;10123416;29;20500;-58
2023/04/20 19:33:03;;;;;;;25.25;16.17;;;;;;;9.42;68.11;100161.72;10142854;29;20226;-58
2023/04/20 19:38:05;;;;;;;24.70;16.50;;;;;;;9.45;68.36;100175.63;10138622;29;20059;-58
2023/04/20 19:43:06;;;;;;;27.67;17.33;;;;;;;9.19;69.05;100178.56;10144086;29;20075;-58
2023/04/20 19:48:08;;;;;;;30.52;17.73;;;;;;;9.27;69.29;100172.34;10146524;29;20147;-58
2023/04/20 19:53:09;;;;;;;29.48;17.90;;;;;;;9.10;69.83;100166.16;10137261;29;20048;-58
2023/04/20 19:58:12;;;;;;;28.55;18.17;;;;;;;9.05;70.31;100171.22;10138108;29;20602;-60
2023/04/20 20:03:14;;;;;;;26.85;17.35;;;;;;;8.96;70.74;100172.22;10136756;29;20064;-57
2023/04/20 20:08:16;;;;;;;38.03;20.00;;;;;;;8.93;71.05;100154.66;10141816;29;20059;-59
2023/04/20 20:13:17;;;;;;;36.22;19.38;;;;;;;8.82;71.53;100166.53;10143326;29;20139;-59
2023/04/20 20:18:19;;;;;;;33.90;20.23;;;;;;;8.82;72.24;100166.53;10138597;29;20055;-59
2023/04/20 20:23:20;;;;;;;41.00;20.60;;;;;;;8.81;71.98;100158.69;10140332;29;20151;-59
2023/04/20 20:28:22;;;;;;;48.63;22.75;;;;;;;8.92;71.83;100155.63;10120391;29;20119;-59
2023/04/20 20:33:23;;;;;;;40.97;21.25;;;;;;;8.89;72.78;100147.97;10137892;29;20057;-59
2023/04/20 20:38:25;;;;;;;39.00;22.02;;;;;;;8.84;73.11;100148.44;10134735;29;20087;-59
2023/04/20 20:43:27;;;;;;;39.72;22.98;;;;;;;8.89;72.88;100137.22;10138268;29;20140;-58
2023/04/20 20:48:28;;;;;;;45.72;23.13;;;;;;;8.97;73.49;100136.38;10138873;29;20053;-59
2023/04/20 20:53:30;;;;;;;48.17;24.05;;;;;;;8.96;73.36;100137.38;10139629;29;20344;-59
2023/04/20 20:58:31;;;;;;;49.10;24.83;;;;;;;9.04;73.34;100127.47;10146665;29;20064;-59
2023/04/20 21:03:33;;;;;;;52.30;26.13;;;;;;;9.07;73.65;100118.25;10139187;29;20076;-60
2023/04/20 21:08:35;;;;;;;54.08;25.90;;;;;;;9.17;73.56;100107.34;10120898;29;20056;-59
2023/04/20 21:13:36;;;;;;;50.40;25.23;;;;;;;9.24;73.57;100101.09;10122717;29;20400;-57
2023/04/20 21:18:38;;;;;;;51.58;25.88;;;;;;;9.32;73.27;100113.63;10139697;29;20135;-58
2023/04/20 21:23:39;;;;;;;58.28;26.33;;;;;;;9.21;74.06;100116.69;10143522;29;20675;-58
2023/04/20 21:28:41;;;;;;;52.80;26.20;;;;;;;9.25;74.34;100097.41;10128342;29;20056;-58
2023/04/20 21:33:42;;;;;;;49.78;25.65;;;;;;;9.22;74.10;100127.25;10145519;29;20080;-57
2023/04/20 21:38:44;;;;;;;49.17;26.40;;;;;;;9.35;73.94;100123.19;10149800;29;20057;-58
2023/04/20 21:43:45;;;;;;;50.85;26.10;;;;;;;9.36;74.20;100138.25;10147482;29;20103;-58
2023/04/20 21:48:47;;;;;;;48.35;25.38;;;;;;;9.16;74.92;100146.69;10148202;29;20084;-58
2023/04/20 21:53:48;;;;;;;47.08;25.45;;;;;;;9.26;74.67;100136.63;10144676;29;20163;-58
2023/04/20 21:58:49;;;;;;;55.97;27.92;;;;;;;9.35;74.31;100124.03;10154439;29;20071;-58
2023/04/20 22:03:51;;;;;;;55.17;25.00;;;;;;;9.42;74.12;100074.03;10144607;29;20159;-59
2023/04/20 22:08:53;;;;;;;51.05;24.70;;;;;;;9.37;74.82;100080.94;10144281;29;20128;-59
2023/04/20 22:13:56;;;;;;;49.33;24.98;;;;;;;9.33;75.13;100089.31;10152464;29;20044;-59
2023/04/20 22:18:57;;;;;;;52.90;25.80;;;;;;;9.23;75.24;100094.06;10151312;29;20053;-59
2023/04/20 22:23:58;;;;;;;47.78;24.63;;;;;;;9.33;75.35;100097.38;10149721;29;20120;-60
2023/04/20 22:29:00;;;;;;;50.97;25.65;;;;;;;9.42;74.79;100113.41;10148751;29;20622;-58
2023/04/20 22:34:01;;;;;;;49.47;25.58;;;;;;;9.50;74.83;100108.88;10152471;29;20049;-60
2023/04/20 22:39:03;;;;;;;47.55;25.25;;;;;;;9.59;74.85;100096.25;10149787;29;20142;-59
2023/04/20 22:44:05;;;;;;;54.40;25.10;;;;;;;9.62;74.87;100087.03;10135391;29;20132;-59
2023/04/20 22:49:07;;;;;;;50.08;25.52;;;;;;;9.68;75.16;100083.63;10148293;29;20080;-59
2023/04/20 22:54:09;;;;;;;47.67;23.27;;;;;;;9.61;75.25;100083.47;10150803;29;20072;-58
2023/04/20 22:59:10;;;;;;;48.47;24.77;;;;;;;9.58;75.42;100075.78;10150931;29;20108;-60
2023/04/20 23:04:11;;;;;;;48.92;24.75;;;;;;;9.66;75.46;100075.75;10148658;29;20869;-59